This is the latest recevied weather packets stored in our database for station/object KB8DOA. If no packets are shown the sender has not sent any weather packets the latest 10 day(s).
| Time | Temp. | Humidity | Pressure | Rain* | Wind** | Luminosity | Snow |
|---|---|---|---|---|---|---|---|
| 1778071205 | 26.11° C | 82% | 1014 hPa | 0 mm | - | 269 W/m² | - |
| 1778070303 | 26.11° C | 82% | 1013.8 hPa | 0 mm | - | 206 W/m² | - |
| 1778070004 | 26.11° C | 83% | 1014.2 hPa | 0 mm | - | 185 W/m² | - |
| 1778067304 | 25° C | 92% | 1015.3 hPa | 0 mm | - | 25 W/m² | - |
| 1778061005 | 23.33° C | 89% | 1014.5 hPa | 0 mm | - | 0 W/m² | - |
| 1778060704 | 23.33° C | 89% | 1014.5 hPa | 0 mm | - | 0 W/m² | - |
| 1778055303 | 24.44° C | 87% | 1014.4 hPa | 0 mm | - | 0 W/m² | - |
| 1778054704 | 24.44° C | 86% | 1014.3 hPa | 0 mm | - | 0 W/m² | - |
| 1778054104 | 24.44° C | 86% | 1014.3 hPa | 0 mm | - | 0 W/m² | - |
| 1778048704 | 25.56° C | 82% | 1013.5 hPa | 0 mm | - | 0 W/m² | - |
| 1778046904 | 25.56° C | 82% | 1013.1 hPa | 0 mm | - | 0 W/m² | - |
| 1778045704 | 25.56° C | 84% | 1014.1 hPa | 0 mm | - | 0 W/m² | - |
| 1778044804 | 25.56° C | 84% | 1014.5 hPa | 0 mm | - | 0 W/m² | - |
| 1778038204 | 25.56° C | 83% | 1014.7 hPa | 0 mm | - | 0 W/m² | - |
| 1778034305 | 25.56° C | 82% | 1014.1 hPa | 0 mm | - | 0 W/m² | - |
| 1778032204 | 25.56° C | 83% | 1014.4 hPa | 0 mm | - | 0 W/m² | - |
| 1778031904 | 25.56° C | 82% | 1014.1 hPa | 0 mm | - | 0 W/m² | - |
| 1778029203 | 26.11° C | 82% | 1014.4 hPa | 0 mm | - | 0 W/m² | - |
| 1778026503 | 26.11° C | 80% | 1013.5 hPa | 0 mm | - | 0 W/m² | - |
| 1778025904 | 26.11° C | 81% | 1013.5 hPa | 0 mm | - | 0 W/m² | - |
| 1778025003 | 26.11° C | 81% | 1013.2 hPa | 0 mm | - | 0 W/m² | - |
| 1778024704 | 26.11° C | 81% | 1013.1 hPa | 0 mm | - | 0 W/m² | - |
| 1778024406 | 26.11° C | 81% | 1013.1 hPa | 0 mm | - | 0 W/m² | - |
| 1778024103 | 26.11° C | 81% | 1013 hPa | 0 mm | - | 0 W/m² | - |
| 1778023504 | 26.11° C | 81% | 1013.1 hPa | 0 mm | - | 0 W/m² | - |
* Rain latest hour (hover to see other rain measurements)
** Current wind speed in m/s (hover to see current wind gust speed)